This is the latest recevied weather packets stored in our database for station/object DO6WO-10. If no packets are shown the sender has not sent any weather packets the latest 10 day(s).
| Time | Temp. | Humidity | Pressure | Rain* | Wind** | Luminosity | Snow |
|---|---|---|---|---|---|---|---|
| 1778196489 | 9.44° C | 52% | 1023.7 hPa | - | - | - | - |
| 1778193789 | 10.56° C | 50% | 1023.8 hPa | - | - | - | - |
| 1778191089 | 10.56° C | 51% | 1024.2 hPa | - | - | - | - |
| 1778188395 | 11.67° C | 49% | 1023.7 hPa | - | - | - | - |
| 1778185695 | 11.67° C | 49% | 1023.6 hPa | - | - | - | - |
| 1778182995 | 12.78° C | 47% | 1023.2 hPa | - | - | - | - |
| 1778180295 | 13.33° C | 46% | 1022.6 hPa | - | - | - | - |
| 1778177595 | 15.56° C | 43% | 1021.9 hPa | - | - | - | - |
| 1778174895 | 16.67° C | 41% | 1021.6 hPa | - | - | - | - |
| 1778172195 | 17.78° C | 41% | 1021.3 hPa | - | - | - | - |
| 1778169495 | 17.78° C | 41% | 1021.3 hPa | - | - | - | - |
| 1778166795 | 18.33° C | 41% | 1021.2 hPa | - | - | - | - |
| 1778164095 | 17.22° C | 43% | 1021.4 hPa | - | - | - | - |
| 1778161395 | 17.22° C | 43% | 1021.4 hPa | - | - | - | - |
| 1778158695 | 16.67° C | 45% | 1021.6 hPa | - | - | - | - |
| 1778155995 | 16.67° C | 45% | 1021.3 hPa | - | - | - | - |
| 1778153295 | 15° C | 47% | 1021.8 hPa | - | - | - | - |
| 1778150595 | 14.44° C | 49% | 1022.1 hPa | - | - | - | - |
| 1778147894 | 12.78° C | 51% | 1022.2 hPa | - | - | - | - |
| 1778145199 | 12.78° C | 52% | 1022 hPa | - | - | - | - |
| 1778142499 | 10.56° C | 56% | 1022 hPa | - | - | - | - |
| 1778139799 | 9.44° C | 54% | 1022 hPa | - | - | - | - |
| 1778137099 | 8.33° C | 56% | 1021.6 hPa | - | - | - | - |
| 1778134399 | 8.89° C | 54% | 1021.3 hPa | - | - | - | - |
| 1778131699 | 8.33° C | 55% | 1021 hPa | - | - | - | - |
* Rain since midnight (hover to see other rain measurements)
** Current wind speed in m/s (hover to see current wind gust speed)